KOKK/OKK METAR and TAF weather

Enter ICAO airport designator
Station Type Date Time Source
KOKK METAR 2020/02/24 23:56 UTC NOAA

KOKK 242356Z AUTO 06007KT 4SM -RA BR FEW009 BKN029 OVC035 05/05 A2981 RMK AO2 SLP099 P0006 60018 T00500050 10067 20050 53008


Station Type Date Time Source
KOKK Decoded METAR 2020/02/24 23:56 UTC NOAA

Kokomo, Kokomo Municipal Airport, IN, United States (KOKK) 40-32N 086-04W
Feb 24, 2020 - 06:56 PM EST / 2020.02.24 2356 UTC
Wind: from the ENE (060 degrees) at 8 MPH (7 KT):0
Visibility: 4 mile(s):0
Sky conditions: overcast
Weather: light rain; mist
Precipitation last hour: 0.06 inches
Temperature: 41.0 F (5.0 C)
Dew Point: 41.0 F (5.0 C)
Relative Humidity: 100%
Pressure (altimeter): 29.81 in. Hg (1009 hPa)
Pressure tendency: 0.02 inches (0.8 hPa) higher than three hours ago
ob: KOKK 242356Z AUTO 06007KT 4SM -RA BR FEW009 BKN029 OVC035 05/05 A2981 RMK AO2 SLP099 P0006 60018 T00500050 10067 20050 53008
cycle: 0

Station Type Date Time Source
KOKK TAF UTC NOAA

Error!

Example: see airport list